Terminal Aerodrome Forecast
Issued by NWS

Current Version | Previous Version | Text Only | Print | Product List | Glossary On
Versions: 1 2 3 4 5 6 7 8 9 10 11 12 13 14 15 16 17
000
FTUS41 KPBZ 302300
TAFFKL
TAF
KFKL 302322Z 3100/3124 20008KT P6SM BKN200
     FM310800 21005KT 5SM -SHRA OVC025
     FM311200 23008KT 2SM -SHRA BR OVC007
     FM311600 22008KT 3SM -SHRA BR OVC010
     FM312000 21008KT 6SM -SHRA BR OVC020
      AMD LTD TO CLD VIS AND WIND=

USA.gov is the U.S. government's official web portal to all federal, state and local government web resources and services.